x

8452951 - Potter Cove, Prudence Island, Ri (ptcr1) Weather Station

9:12 - Tue 23rd May 2017 All times are EDT. -4 hours from GMT.

  • Wind
    3mph, 6mph gusts
  • Air Temp 58°f
  • Sea Pressure 1009.9mb
  • 8452951 - Potter Cove, Prudence Island, Ri
  • 8452951 - Potter Cove, Prudence Island, Ri

More Historic Weather Station data

Upgrade to MSW Pro to gain access to the past 30 days of data for over 8000 Wavebouys and Weather Stations around the globe.

Join Pro

Comparision Forecast

View Surf forecast
   
mar. 05/23 9:12 3 6 mph 1009.9mb 58f
9:06 3 7 mph 1010.1mb 58f
9:00 5 8 mph 1010.2mb 58f
8:48 5 9 mph 1010.2mb 58f
8:42 5 8 mph 1010mb 58f
8:36 5 8 mph 1010.1mb 58f
8:30 5 7 mph 1010mb 59f
8:24 3 8 mph 1010mb 59f
8:18 3 8 mph - -
8:12 5 6 mph 1010mb 60f
8:06 3 6 mph 1009.9mb 60f
8:00 3 6 mph 1009.7mb -
7:54 3 8 mph 1009.7mb 61f
7:48 3 6 mph - -
7:42 5 8 mph 1009.5mb 62f
7:36 3 7 mph 1009.6mb 62f
7:30 3 7 mph 1009.5mb 62f
7:24 5 8 mph 1009.6mb 62f
7:18 2 7 mph 1009.6mb 63f
7:06 5 7 mph 1009.5mb 64f
7:00 5 8 mph 1009.4mb -
6:48 5 8 mph 1009.6mb -
6:42 3 7 mph 1009.6mb 64f
6:36 3 6 mph 1009.6mb 64f
6:30 3 7 mph 1009.5mb 64f
6:24 5 8 mph 1009.5mb 64f
6:18 5 10 mph 1009.6mb 65f
6:12 6 10 mph 1009.7mb 65f
6:06 6 8 mph 1009.6mb 66f
6:00 5 8 mph 1009.5mb 66f
5:54 5 7 mph 1009.3mb 66f
5:48 2 3 mph 1009.4mb 67f
5:42 3 6 mph 1009.6mb 67f
5:36 2 5 mph 1009.7mb 68f
5:30 1 2 mph 1009.7mb 70f
5:24  -  2 mph 1009.6mb 71f
5:18 2 3 mph 1009.6mb 70f
5:12 1 3 mph 1009.6mb 70f
5:06 1 3 mph 1009.5mb 70f
5:00  -  2 mph 1009.7mb 70f
4:54  -  2 mph 1009.8mb 70f
4:48  -  1 mph 1009.9mb 70f
4:42  -  1 mph 1009.7mb 70f
4:36 1 2 mph 1009.7mb 70f
4:30 1 2 mph 1009.8mb 70f
4:24  -  1 mph 1009.7mb 71f
4:18  -  1 mph 1009.7mb 71f
4:12  -  1 mph 1009.8mb 70f
4:06  -  2 mph 1009.9mb 70f
4:00 2 3 mph 1009.9mb 69f
3:54 3 5 mph 1010.1mb 69f
3:48 6 7 mph 1010.2mb 68f
3:42 6 7 mph 1010.2mb 68f
3:36 5 6 mph 1010.2mb 69f
3:30 6 8 mph 1010.3mb 69f
3:24 5 7 mph 1010.3mb 69f
3:18 6 8 mph 1010.3mb 70f
3:12 6 9 mph 1010.3mb 70f
3:06 7 11 mph 1010.3mb 70f
3:00 6 9 mph 1010.3mb 70f
2:54 6 9 mph 1010.3mb 69f
2:48 6 8 mph 1010.4mb 69f
2:42 6 9 mph 1010.4mb 69f
2:36 5 6 mph 1010.4mb 69f
2:30 5 7 mph 1010.6mb 69f
2:24 6 7 mph 1010.6mb 69f
2:18 6 8 mph 1010.4mb 69f
2:12 5 8 mph 1010.5mb 69f
2:06 6 9 mph 1010.6mb 69f
2:00 3 7 mph 1010.6mb 69f
1:54 6 9 mph 1010.7mb 69f
1:48 5 7 mph 1010.8mb 69f
1:42 3 8 mph 1010.9mb 69f
1:36 2 5 mph 1011.1mb 68f
1:30 2 3 mph 1011mb 69f
1:24 3 6 mph 1011.1mb 67f
1:18 5 6 mph 1011.1mb 67f
1:12 5 7 mph 1011.2mb 67f
1:06 5 6 mph 1011.3mb 66f
1:00 5 6 mph 1011.4mb 66f
12:54 6 7 mph 1011.4mb 66f
12:48 6 7 mph - -
12:42 6 9 mph 1011.7mb 65f
12:36 7 10 mph 1011.9mb 65f
12:30 7 9 mph 1011.9mb 65f
12:24 8 11 mph 1012.1mb 65f
12:18 8 11 mph 1012.2mb 65f
12:12 8 11 mph 1012.4mb 65f
12:06 8 13 mph 1012.6mb 65f
12:00 8 13 mph 1012.6mb 66f
11:54 8 11 mph 1012.7mb 65f
11:48 9 14 mph 1012.6mb 65f
11:42 9 11 mph 1012.6mb 64f
11:36 7 9 mph 1012.7mb 64f
11:30 8 13 mph 1012.6mb 64f
11:24 7 9 mph 1012.5mb 64f
11:18 7 11 mph 1012.5mb 63f
11:12 8 10 mph 1012.5mb 64f
11:06 9 11 mph 1012.4mb 63f
11:00 7 10 mph 1012.6mb 63f
10:54 9 14 mph 1012.9mb 63f
10:48 10 14 mph 1012.8mb 63f
10:42 10 14 mph 1012.8mb 62f
10:36 10 14 mph 1012.7mb 63f
10:30 9 13 mph 1012.7mb 62f
10:24 8 11 mph 1012.7mb 62f
10:18 8 11 mph 1012.7mb 61f
10:12 7 9 mph 1012.7mb 60f
10:06 8 11 mph 1012.8mb 61f
10:00 9 11 mph 1012.9mb 60f
9:54 7 11 mph 1013mb 60f
9:48 6 8 mph 1013.1mb 60f
9:42 7 10 mph 1013.2mb 61f
9:36 7 10 mph 1013.3mb 60f
9:30 7 11 mph 1013.3mb 59f
9:24 7 11 mph 1013.3mb 58f
9:18 6 9 mph - -
9:12 7 10 mph 1013.4mb 58f
9:06 6 8 mph 1013.3mb 58f
9:00 7 9 mph 1013.3mb 59f
8:54 7 13 mph 1013.3mb 58f
8:48 7 9 mph 1013.4mb 59f
8:42 8 11 mph 1013.2mb 58f
8:36 7 10 mph 1013.6mb 56f
8:30 7 10 mph 1013.5mb 56f
8:24 7 10 mph 1013.4mb 56f
8:18 10 14 mph 1013.4mb 56f
8:12 9 14 mph 1013.4mb 56f
8:06 7 11 mph 1013.4mb 57f
8:00 8 13 mph 1013.4mb 56f
7:54 7 13 mph 1013.4mb 56f
7:48 6 9 mph 1013.4mb 56f
7:42 7 11 mph 1013.3mb 56f
7:36 7 13 mph 1013.3mb 55f
7:30 8 13 mph 1013.3mb 55f
7:24 9 13 mph 1013.3mb 55f
7:18 8 11 mph 1013.2mb 55f
7:12 7 10 mph 1013.1mb 55f
7:06 6 10 mph 1013.2mb 55f
7:00 6 9 mph 1013.3mb 55f
6:54 7 10 mph 1013.3mb 55f
6:48 8 10 mph 1013.2mb 55f
6:42 7 10 mph 1013.1mb 55f
6:36 6 8 mph 1013.2mb 55f
6:30 5 7 mph 1013.3mb 55f
6:24 5 7 mph 1013.2mb 55f
6:18 6 8 mph - -
6:12 6 8 mph 1013.4mb 55f
6:06 6 9 mph 1013.4mb 54f
6:00 6 10 mph 1013.3mb 54f
5:54 6 9 mph 1013.1mb 54f
5:48 6 8 mph 1013.1mb 55f
5:42 8 10 mph 1013.1mb 55f
5:36 7 13 mph 1013mb 54f
5:30 7 10 mph 1012.9mb 55f
5:24 7 11 mph 1012.9mb 55f
5:18 7 10 mph 1012.9mb 55f
5:12 7 11 mph 1012.9mb 55f
5:06 8 11 mph 1012.6mb 55f
5:00 7 13 mph 1012.6mb 55f
4:54 6 9 mph 1012.7mb 55f
4:48 6 9 mph 1012.7mb 55f
4:42 6 9 mph 1012.6mb 55f
4:36 6 9 mph 1012.7mb 55f
4:30 6 9 mph 1012.7mb 55f
4:24 5 7 mph 1012.6mb 55f
4:18 7 9 mph 1012.6mb 55f
4:12 6 9 mph 1012.8mb 55f
4:06 7 13 mph 1012.8mb 55f
4:00 7 11 mph 1012.7mb 55f
3:54 7 11 mph 1012.7mb 55f
3:48 7 11 mph 1012.7mb 55f
3:42 6 9 mph 1012.6mb 56f
3:36 7 11 mph 1012.6mb 56f
3:30 7 11 mph 1012.7mb 56f
3:24 7 10 mph 1012.7mb 56f
3:18 5 8 mph 1012.6mb 57f
3:12 3 6 mph 1012.5mb 57f
3:06 2 6 mph 1012.4mb 57f
3:00 3 5 mph 1012.3mb 57f
2:54 2 5 mph 1012.3mb 57f
2:48  -  1 mph 1012.4mb 57f
2:42  -  2 mph 1012.3mb -
2:36 1 2 mph 1012.4mb -
2:30 2 3 mph 1012.5mb 57f
2:24  -  2 mph 1012.7mb 57f
2:18  -  0 mph 1012.7mb 57f
2:12  -  0 mph 1012.6mb 57f
2:06  -  1 mph 1012.7mb 57f
2:00  -  1 mph 1012.7mb 57f
1:54  -  0 mph 1012.8mb 57f
1:48  -  1 mph 1012.8mb 57f
1:42  -  1 mph 1012.8mb 57f
1:36  -  2 mph 1012.8mb 57f
1:30  -  1 mph 1012.7mb 57f
1:24  -  2 mph 1012.7mb 57f
1:18 2 5 mph - -
1:12 2 3 mph 1013mb 57f
1:06 1 3 mph 1013mb 57f
1:00 1 3 mph 1013mb 57f
12:54 2 3 mph 1013.1mb 57f
12:48 2 5 mph 1013.2mb 57f
12:42 2 5 mph 1013.3mb 57f
12:36 2 6 mph 1013.3mb 57f
12:30 2 5 mph 1013.5mb 57f
12:24 2 5 mph 1013.6mb 57f
12:18 2 6 mph 1013.8mb 57f
12:12 2 6 mph 1013.9mb 57f
12:06 3 6 mph 1013.9mb 57f
12:00 5 8 mph 1013.9mb 56f
lun. 05/22 11:54 5 7 mph 1013.8mb 56f
11:48 3 8 mph - -
11:42 3 6 mph 1013.9mb 56f
11:36 5 10 mph 1013.9mb 56f
11:30 5 8 mph 1014mb 56f
11:24 6 13 mph 1014mb 56f
11:18 5 8 mph 1014mb 57f
11:12 6 13 mph 1014mb 57f
11:06 5 8 mph 1014.1mb 57f
11:00 3 11 mph 1014.1mb 56f
10:54 6 11 mph 1014.2mb 56f
10:48 7 17 mph 1014.2mb 56f
10:42 6 10 mph 1014.3mb 56f
10:36 7 17 mph 1014.4mb 57f
10:30 8 14 mph 1014.5mb 57f
10:24 5 9 mph 1014.6mb 57f
10:18 6 15 mph 1014.8mb 57f
10:12 6 10 mph 1014.8mb 57f
10:06 6 11 mph 1014.9mb 57f
10:00 7 13 mph 1015mb 57f
9:54 7 14 mph 1014.9mb 58f
9:48 6 13 mph 1014.8mb 58f
9:42 3 10 mph 1014.8mb 57f
9:36 6 17 mph 1014.9mb 57f
9:30 5 11 mph 1014.9mb -
9:24 6 14 mph 1014.9mb 57f
9:18 6 14 mph 1014.8mb -
9:12 5 14 mph 1015mb 57f
9:06 6 14 mph 1015mb 56f
9:00 8 15 mph 1014.9mb 56f
8:54 6 14 mph 1014.9mb 56f
8:48 6 15 mph 1015.1mb 56f
8:42 3 11 mph 1015.3mb 56f
8:36 6 14 mph 1015.5mb 56f
8:30 6 13 mph 1015.6mb 56f
8:24 3 7 mph 1015.7mb 56f
8:18 5 9 mph - -
8:12 5 10 mph 1015.7mb 56f
8:06 5 10 mph 1015.7mb 56f
8:00 5 8 mph 1015.8mb -
7:54 2 7 mph 1015.8mb 56f
7:48 5 10 mph 1015.8mb -
7:42 5 13 mph 1016mb 56f
7:36 6 11 mph 1016mb 55f
7:30 7 13 mph 1016.1mb 55f
7:24 6 11 mph 1016.3mb 55f
7:18 5 8 mph 1016.4mb 55f
7:12 5 11 mph 1016.5mb 55f
7:06 3 7 mph 1016.5mb 55f
7:00 2 6 mph 1016.5mb 55f
6:54 3 10 mph 1016.5mb 54f
6:48 1 5 mph 1016.6mb -
6:42 2 7 mph 1016.7mb 54f
6:36 2 5 mph 1016.7mb 54f
6:30 2 8 mph 1016.7mb 54f
6:24 2 5 mph 1016.8mb 54f
6:18 1 3 mph - -
6:12 2 6 mph 1016.9mb 53f
6:06 2 6 mph 1017mb 53f
6:00 3 7 mph 1017.2mb 53f
5:54 2 6 mph 1017.2mb 53f
5:48 2 7 mph 1017.4mb 53f
5:42  -  0 mph 1017.5mb 53f
5:36 3 7 mph 1017.4mb 53f
5:30 2 7 mph 1017.4mb 53f
5:24 5 7 mph 1017.6mb 53f
5:18 2 5 mph 1017.7mb 53f
5:12 2 7 mph 1017.8mb 52f
5:06 3 8 mph 1017.8mb 52f
5:00 1 6 mph 1017.7mb 52f
4:54 3 7 mph 1017.9mb 52f
4:48 3 9 mph 1018.1mb 52f
4:42 2 5 mph 1018.3mb 52f
4:36 2 6 mph 1018.4mb 52f
4:30 2 7 mph 1018.5mb 52f
4:24 3 8 mph 1018.6mb 52f
4:18 2 7 mph 1018.6mb 52f
4:12 2 6 mph 1018.7mb 52f
4:06 2 5 mph 1018.7mb 52f
4:00 2 6 mph 1018.9mb 51f
3:54 2 7 mph 1019mb 51f
3:48 2 6 mph 1019.2mb 51f
3:42 3 7 mph 1019.5mb 51f
3:36 3 10 mph 1019.7mb 51f
3:30 5 9 mph 1019.7mb 51f
3:24 7 13 mph 1019.6mb 52f
3:18 7 14 mph 1019.5mb 53f
3:12 7 13 mph 1019.5mb 53f
3:06 6 13 mph 1019.5mb 54f
3:00 6 13 mph 1019.5mb 54f
2:54 6 11 mph 1019.6mb 54f
2:48 5 9 mph 1019.6mb 55f
2:42 3 10 mph 1019.6mb 55f
2:36 5 10 mph 1019.7mb 55f
2:30 5 9 mph 1019.8mb 54f
2:24 6 11 mph 1019.8mb 54f
2:18 7 15 mph 1019.9mb 54f
2:12 7 13 mph 1020.1mb 54f
2:06 7 16 mph 1020.2mb 54f
2:00 7 16 mph 1020.1mb 55f
1:54 5 11 mph 1020.1mb 56f
1:48 3 9 mph 1020.3mb 56f
1:42 3 9 mph 1020.2mb 56f
1:36 5 10 mph 1020.2mb 56f
1:30 6 10 mph 1020.2mb 56f
1:24 5 10 mph 1020.4mb 56f
1:18 6 13 mph 1020.4mb 56f
1:12 3 9 mph 1020.4mb 56f
1:06 2 6 mph 1020.4mb 56f
1:00 3 10 mph 1020.5mb 56f
12:54 3 8 mph 1020.6mb 56f
12:48 5 9 mph 1020.6mb 56f
12:42 3 8 mph 1020.7mb 56f
12:36 3 8 mph 1020.7mb 56f
12:30 3 8 mph 1020.8mb 56f
12:24 3 10 mph 1020.9mb 55f
12:18 5 9 mph 1021.1mb 55f
12:12 5 10 mph 1020.9mb 55f
12:06 3 8 mph 1021mb 55f
12:00 5 10 mph 1021.1mb 55f
11:54 5 10 mph 1021.1mb 56f
11:48 5 9 mph 1021.3mb 56f
11:42 6 11 mph 1021.4mb 56f
11:36 5 10 mph 1021.6mb 55f
11:30 6 9 mph 1021.9mb 55f
11:24 5 9 mph 1021.8mb 55f
11:18 5 10 mph 1021.8mb 55f
11:12 3 11 mph 1021.8mb 55f
11:06 7 14 mph 1021.8mb 56f
11:00 6 14 mph 1021.8mb 55f
10:54 7 16 mph 1021.9mb 55f
10:48 5 10 mph 1022.1mb 55f
10:42 5 10 mph 1022.1mb 55f
10:36 6 13 mph 1022.2mb 55f
10:30 6 10 mph 1022.2mb 55f
10:24 3 9 mph 1022.4mb 55f
10:18 6 13 mph 1022.2mb 55f
10:12 6 16 mph 1022.2mb 55f
10:06 3 9 mph 1022.3mb 55f
10:00 5 8 mph 1022.2mb 55f
9:54 3 8 mph 1022.3mb 55f
9:48 5 9 mph 1022.4mb 55f
9:30 5 9 mph 1022.3mb 54f
9:24 5 9 mph 1022.4mb 54f
9:18 5 9 mph 1022.5mb 54f
9:12 3 6 mph 1022.4mb 54f
9:06 3 7 mph 1022.6mb 54f
9:00 3 7 mph 1022.7mb 53f
8:54 3 7 mph 1022.8mb 53f
8:48 3 7 mph 1022.8mb 53f
8:42 3 6 mph 1022.9mb 53f
8:36 3 8 mph 1022.9mb 53f
8:30 3 6 mph 1023mb 53f
8:24 3 7 mph 1023mb 53f
8:18 3 7 mph 1023mb 53f
8:12 3 6 mph 1023mb 53f
8:06 2 6 mph 1023mb 53f
8:00 2 6 mph 1023.1mb 53f
7:54 1 5 mph 1023.1mb 53f
7:48 2 6 mph 1023.2mb 53f
7:42 2 5 mph 1023.1mb 53f
7:36 2 5 mph 1023.1mb 52f
7:30 3 8 mph 1023.2mb 52f
7:24  -  3 mph 1023.2mb 52f
7:18  -  2 mph 1023.2mb 52f
7:12 2 5 mph 1023.1mb 52f
7:06 1 5 mph 1022.9mb 52f
7:00 2 6 mph 1023mb 53f
6:54 3 8 mph 1023.1mb 53f
6:48 2 5 mph 1023.2mb 53f
6:42 3 6 mph 1023.2mb 53f
6:36 5 9 mph 1023.4mb 53f
6:30 3 6 mph 1023.3mb 53f
6:24 2 6 mph 1023.3mb 53f
6:18 3 7 mph 1023.3mb 53f
6:12 3 7 mph 1023.3mb 53f
6:06 2 5 mph 1023.4mb 53f
6:00 3 6 mph 1023.4mb 53f
5:54 5 9 mph 1023.4mb 53f
5:48 2 6 mph 1023.6mb 53f
5:42 2 5 mph 1023.6mb 53f
5:36 2 5 mph 1023.6mb 53f
5:30 2 6 mph 1023.4mb 52f
5:24 1 3 mph 1023.5mb 52f
5:18 1 3 mph 1023.4mb 52f
5:12 2 6 mph 1023.6mb 52f
5:06 5 7 mph 1023.6mb 52f
5:00 3 6 mph 1023.5mb 52f
4:54 3 6 mph 1023.4mb 52f
4:48 2 5 mph 1023.4mb 52f
4:42 1 3 mph 1023.3mb 53f
4:36 5 6 mph 1023.3mb 54f
4:30 5 7 mph 1023.4mb 54f
4:24 6 8 mph 1023.4mb 54f
4:18 6 7 mph 1023.5mb 54f
4:12 5 7 mph 1023.4mb 54f
4:06 3 6 mph 1023.3mb 54f
4:00 5 7 mph 1023.2mb 54f
3:54 2 5 mph 1023.1mb 54f
3:48 3 6 mph 1023mb 54f
3:42 3 6 mph 1022.9mb 54f
3:36 2 6 mph 1022.9mb 54f
3:30 5 7 mph 1023mb 54f
3:24 3 6 mph 1023.1mb 54f
3:18 3 6 mph 1023.1mb 54f
3:12 3 7 mph 1023mb 54f
3:06 3 7 mph 1023.1mb 54f
3:00 5 7 mph 1023.2mb 54f
2:54 3 6 mph 1023.3mb 54f
2:48 3 6 mph 1023.3mb 54f
2:42 5 7 mph 1023.4mb 54f
2:36 6 9 mph 1023.5mb 54f
2:30 5 8 mph 1023.6mb 54f
2:24 5 8 mph 1023.6mb 54f
2:18 3 7 mph 1023.6mb 54f
2:12 5 7 mph 1023.7mb 54f
2:06 3 7 mph 1023.8mb 54f
2:00 1 3 mph 1023.8mb 54f
1:54 3 6 mph 1023.8mb 54f
1:48 2 5 mph 1023.9mb 54f
1:42 2 5 mph 1023.9mb 54f
1:36 3 8 mph 1024.1mb 54f
1:30 2 6 mph 1024.2mb 54f
1:24 2 3 mph 1024.3mb 54f
1:18 3 6 mph 1024.2mb 54f
1:12 5 8 mph 1024.1mb 54f
1:06 3 6 mph 1024.2mb 54f
1:00 5 7 mph 1024.2mb 54f
12:54 6 9 mph 1024.2mb 54f
12:48 5 9 mph 1024.3mb 54f
12:42 6 8 mph 1024.4mb 54f
12:36 5 9 mph 1024.5mb 54f
12:30 6 9 mph 1024.4mb 54f
12:24 6 11 mph 1024.6mb 54f
12:18 7 10 mph 1024.7mb 54f
12:12 5 9 mph 1024.7mb 54f
12:06 5 9 mph 1024.7mb 54f
12:00 6 9 mph 1024.6mb 54f
dim. 05/21 11:54 7 10 mph 1024.8mb 54f
11:48 6 9 mph - -
11:42 3 6 mph 1025mb 54f
11:36 3 6 mph 1024.7mb 54f
11:30 5 8 mph 1024.9mb 54f
11:24 5 7 mph 1025mb 54f
11:18 3 7 mph 1025.1mb 54f
11:12 3 6 mph 1024.9mb 55f
11:06 3 7 mph 1025mb 55f
11:00 5 7 mph 1025.3mb 55f
10:54 5 7 mph 1025.3mb 55f
10:48 6 9 mph 1025.5mb 55f
10:42 3 7 mph 1025.5mb 55f
10:36 5 8 mph 1025.6mb 55f
10:30 6 8 mph 1025.7mb 55f
10:24 3 8 mph 1025.7mb 55f
10:18 3 7 mph 1025.7mb 55f
10:12 5 9 mph 1025.8mb 55f
10:06 5 8 mph 1025.9mb 55f
10:00 5 8 mph 1026mb 55f
9:54 5 7 mph 1026mb 55f
9:48 5 10 mph 1025.9mb -
9:42 3 6 mph 1025.9mb 55f
9:36 5 7 mph 1025.9mb 55f
9:30 5 8 mph 1025.7mb -
9:24 6 11 mph 1025.6mb 56f
9:18 5 8 mph 1025.7mb 55f
9:12 5 10 mph 1025.7mb 55f
9:06 6 9 mph 1025.8mb 56f
9:00 5 9 mph 1025.8mb 56f
8:54 3 7 mph 1025.8mb 56f
8:48 5 8 mph 1025.9mb -
8:42 6 10 mph 1025.9mb 56f
8:36 5 8 mph 1025.8mb 56f
8:30 6 8 mph 1025.8mb 56f
8:24 6 11 mph 1025.7mb 56f
8:18 5 8 mph - -
8:12 5 10 mph 1025.7mb 56f
8:06 5 9 mph 1025.6mb 56f
8:00 5 11 mph 1025.6mb 56f
7:54 7 13 mph 1025.5mb 56f
7:48 6 14 mph 1025.6mb 57f
7:42 6 14 mph 1025.7mb 57f
7:36 7 14 mph 1025.8mb 57f
7:30 6 11 mph 1025.8mb 57f
7:24 6 13 mph 1025.8mb 57f
7:18 6 11 mph - -
7:12 7 13 mph 1025.8mb 58f
7:06 6 11 mph 1025.8mb 58f
7:00 7 16 mph 1025.8mb 58f
6:54 5 13 mph 1025.8mb 58f
6:48 6 13 mph 1025.8mb -
6:42 7 15 mph 1025.8mb 58f
6:36 8 17 mph 1025.8mb 59f
6:30 8 15 mph 1025.8mb 59f
6:24 7 16 mph 1025.8mb 60f
6:18 7 15 mph - -
6:12 7 14 mph 1025.6mb 60f
6:06 7 13 mph 1025.7mb 60f
6:00 8 15 mph 1025.7mb 61f
5:54 8 16 mph 1025.8mb 61f
5:48 8 16 mph 1025.8mb 61f
5:42 8 18 mph 1025.8mb 60f
5:36 9 18 mph 1025.8mb 61f
5:30 8 17 mph 1025.8mb 61f
5:24 8 16 mph 1025.8mb 61f
5:18 8 18 mph 1025.8mb 61f
5:12 8 16 mph 1025.8mb 61f
5:06 7 16 mph 1025.9mb 62f
5:00 9 17 mph 1025.8mb 62f
4:54 9 18 mph 1025.8mb 62f
4:48 9 18 mph - -
4:42 7 18 mph 1025.9mb 62f
4:36 5 11 mph 1025.8mb 63f
4:30 7 15 mph 1025.8mb 64f
4:24 7 15 mph 1026mb 63f
4:18 7 15 mph 1026mb 64f
4:12 6 13 mph 1026mb 64f
4:06 6 14 mph 1026mb 64f
4:00 7 14 mph 1026.1mb 64f
3:54 6 13 mph 1026.2mb 64f
3:48 6 13 mph 1026.4mb 64f
3:42 7 13 mph 1026.4mb 64f
3:36 7 13 mph 1026.4mb 63f
3:30 6 13 mph 1026.3mb 64f
3:24 9 16 mph 1026.4mb 64f
3:18 8 15 mph 1026.4mb 64f
3:12 6 13 mph 1026.5mb 63f
3:06 5 11 mph 1026.5mb 63f
3:00 8 16 mph 1026.6mb 63f
2:54 8 15 mph 1026.6mb 63f
2:48 5 10 mph 1026.5mb 64f
2:42 7 13 mph 1026.5mb 64f
2:36 8 15 mph 1026.5mb 64f
2:30 8 14 mph 1026.7mb 64f
2:24 7 14 mph 1026.7mb 63f
2:18 7 13 mph 1026.7mb 63f
2:12 9 15 mph 1026.8mb 64f
2:06 8 14 mph 1026.8mb 65f
2:00 8 14 mph 1026.9mb 64f
1:54 7 15 mph 1026.9mb 63f
1:48 6 10 mph 1027mb 63f
1:42 6 10 mph 1027.1mb 64f
1:36 7 15 mph 1027.3mb 64f
1:30 6 11 mph 1027.4mb 63f
1:24 5 9 mph 1027.4mb 63f
1:18 7 14 mph 1027.3mb 64f
1:12 6 10 mph 1027.4mb 64f
1:06 6 11 mph 1027.6mb 64f
1:00 6 11 mph 1027.6mb 64f
12:54 6 8 mph 1027.7mb 64f
12:48 5 9 mph 1027.7mb 64f
12:42 6 10 mph 1027.9mb 65f
12:36 5 8 mph 1028mb 65f
12:30 1 3 mph 1028.1mb 64f
12:24 3 5 mph 1028.1mb 65f
12:18 3 5 mph 1028.1mb 65f
12:12 2 5 mph 1028.2mb 64f
12:06 3 6 mph 1028.1mb 65f
12:00 3 5 mph 1028.2mb 64f
11:54 2 5 mph 1028.3mb 63f
11:48 2 5 mph 1028.3mb 65f
11:42 3 6 mph 1028.3mb 64f
11:36  -  2 mph 1028.4mb 64f
11:30 2 3 mph 1028.6mb 64f
11:24 3 6 mph 1028.7mb 64f
11:18 3 6 mph 1028.7mb 64f
11:12 3 6 mph 1028.6mb 64f
11:06 6 7 mph 1028.6mb 64f
11:00 5 6 mph 1028.6mb 62f
10:54 2 6 mph 1028.8mb 64f
10:48 2 3 mph 1028.8mb 63f
10:42 3 5 mph 1029.1mb 62f
10:36 3 5 mph 1029.1mb 62f
10:30 2 5 mph 1029.1mb 61f
10:24 2 5 mph 1029.1mb 61f
10:18 3 5 mph - -
10:12 2 3 mph 1029mb 61f
10:06 2 5 mph 1029mb 61f
10:00 3 5 mph 1028.9mb 61f
9:54 5 6 mph 1028.8mb 61f
9:48 2 5 mph 1028.9mb 60f
9:42 2 5 mph 1028.8mb 60f
9:36 3 6 mph 1028.8mb 60f
9:30 3 5 mph 1028.9mb 59f
9:24 2 5 mph 1028.8mb 60f
9:18 3 6 mph - -
9:12 2 3 mph 1028.7mb 59f
9:06 3 5 mph 1028.6mb 58f
9:00 2 5 mph 1028.6mb 57f
8:54 3 5 mph 1028.7mb 58f
8:48 2 5 mph 1028.7mb 57f
8:42 2 3 mph 1028.5mb 58f
8:36 2 3 mph 1028.6mb 58f
8:30 2 5 mph 1028.5mb 58f
8:24 1 3 mph 1028.6mb 58f
8:18 1 5 mph 1028.7mb 57f
8:12 1 6 mph 1028.8mb 57f
8:06 2 5 mph 1028.9mb 56f
8:00 2 6 mph 1028.8mb 56f
7:54 5 6 mph 1028.8mb 55f
7:48 3 6 mph 1028.7mb 54f
7:42 3 6 mph 1028.8mb 55f
7:36 3 6 mph 1028.7mb 55f
7:30 2 5 mph 1028.8mb 55f
7:24 2 5 mph 1028.8mb 55f
7:18 3 6 mph 1028.9mb 54f
7:12 2 3 mph 1029mb 54f
7:06 1 2 mph 1028.8mb 54f
7:00 1 3 mph 1028.8mb 54f
6:54 2 5 mph 1028.8mb 53f
6:48 1 2 mph 1028.6mb 53f
6:42 2 3 mph 1028.6mb 52f
6:36 2 3 mph 1028.7mb 52f
6:30 2 2 mph 1028.6mb 52f
6:24  -  1 mph 1028.5mb 52f
6:18 1 1 mph 1028.5mb 51f
6:12 1 1 mph 1028.4mb 51f
6:06 1 1 mph 1028.3mb 51f
6:00  -  1 mph 1028.3mb 51f
5:54 1 1 mph 1028.2mb 50f
5:48  -  1 mph - -
5:42  -  1 mph 1028.1mb 49f
5:36  -  1 mph 1028mb 49f
5:30  -  0 mph 1028mb 48f
5:24  -  0 mph 1027.9mb 48f
5:18  -  0 mph 1027.9mb 48f
5:12 1 1 mph 1027.8mb 48f
5:06  -  1 mph 1027.7mb 48f
5:00  -  1 mph 1027.6mb 48f
4:54  -  1 mph 1027.5mb 49f
4:48  -  0 mph 1027.6mb 49f
4:42  -  1 mph 1027.7mb 48f
4:36  -  0 mph 1027.7mb 48f
4:30  -  1 mph 1027.7mb 48f
4:24 1 2 mph 1027.7mb 48f
4:18 1 2 mph 1027.7mb 48f
4:12 2 3 mph 1027.8mb 47f
4:06 3 5 mph 1027.7mb 48f
4:00 2 2 mph 1027.7mb 49f
3:54  -  1 mph 1027.6mb 48f
3:48  -  1 mph - -
3:42  -  0 mph 1027.6mb 49f
3:36  -  0 mph 1027.6mb 48f
3:30  -  1 mph 1027.6mb 48f
3:24 2 6 mph 1027.6mb 48f
3:18 5 9 mph 1027.4mb 48f
3:12 3 5 mph 1027.2mb 48f
3:06 3 6 mph 1027.2mb 48f
3:00 2 5 mph 1027.3mb 48f
2:54 3 5 mph 1027.3mb 48f
2:48 3 6 mph 1027.2mb 48f
2:42 3 6 mph 1027mb 48f
2:36 2 5 mph 1027mb 48f
2:30 2 5 mph 1027mb 48f
2:24 2 3 mph 1027.2mb 48f
2:18 2 5 mph - -
2:12 2 5 mph 1027.4mb 47f
2:06 2 3 mph 1027.5mb 47f
2:00  -  1 mph 1027.4mb 48f
1:54  -  1 mph 1027.3mb 48f
1:48 1 2 mph 1027.3mb 48f
1:42 2 3 mph 1027.3mb 48f
1:36 2 3 mph 1027.2mb 48f
1:30 1 3 mph 1027.4mb 49f
1:24 3 6 mph 1027.4mb 49f
1:18 3 6 mph 1027.5mb 49f
1:12 2 5 mph 1027.6mb 49f
1:06 3 7 mph 1027.5mb 50f
1:00 5 8 mph 1027.5mb 50f
12:54 3 6 mph 1027.5mb 50f
12:48 3 6 mph 1027.5mb 50f
12:42 6 8 mph 1027.5mb 51f
12:36 5 7 mph 1027.5mb 51f
12:30 6 8 mph 1027.5mb 51f
12:24 6 8 mph 1027.4mb 51f
12:18 6 7 mph 1027.3mb 51f
12:12 6 8 mph 1027.2mb 51f
12:06 6 8 mph 1027.2mb 51f
12:00 5 8 mph 1027.1mb 51f
sam. 05/20 11:54 5 7 mph 1027.1mb 51f
11:48 5 6 mph 1027.1mb 51f
11:42 5 7 mph 1027.1mb 51f
11:36 3 6 mph 1027.2mb 51f
11:30 5 6 mph 1027.2mb 51f
11:24 3 6 mph 1027.2mb 51f
11:18 5 7 mph - -
11:12 3 6 mph 1027.3mb 51f
11:06 3 6 mph 1027.3mb 51f
11:00 5 7 mph 1027.3mb 51f
10:54 3 6 mph 1027.3mb 51f
10:48 3 5 mph 1027.3mb 51f
10:42 5 7 mph 1027.3mb 52f
10:36 5 7 mph 1027.3mb 52f
10:30 5 8 mph 1027.2mb 52f
10:24 6 8 mph 1027.1mb 53f
10:18 6 10 mph 1027.1mb 53f
10:12 7 10 mph 1027mb 53f
10:06 7 11 mph 1026.9mb 53f
10:00 7 13 mph 1027mb 53f
9:54 7 10 mph 1026.9mb 53f
9:48 7 11 mph 1026.8mb -
9:42 7 11 mph 1026.8mb 53f
9:36 7 11 mph 1026.8mb 53f
9:30 6 8 mph 1026.9mb 53f
9:24 6 8 mph 1026.9mb 53f
9:18 5 7 mph 1026.8mb 53f
9:12 5 8 mph 1026.7mb 53f
9:06 5 8 mph 1026.7mb 53f
9:00 5 10 mph 1026.7mb 53f
8:54 6 9 mph 1026.6mb 53f
8:48 6 10 mph 1026.6mb -
8:42 5 9 mph 1026.3mb 53f
8:36 6 8 mph 1026.3mb 53f
8:30 5 10 mph 1026.3mb 53f
8:24 6 10 mph 1026.3mb 53f
8:18 5 8 mph 1026.3mb 53f
8:12 6 10 mph 1026.3mb 53f
8:06 6 9 mph 1026.1mb 54f
8:00 6 9 mph 1026mb 54f
7:54 6 11 mph 1025.9mb 54f
7:48 6 10 mph 1025.8mb -
7:42 6 13 mph 1025.8mb 54f
7:36 6 10 mph 1025.8mb 54f
7:30 7 13 mph 1025.7mb -
7:24 6 13 mph 1025.8mb 55f
7:18 7 14 mph - -
7:12 7 14 mph 1025.5mb 55f
7:06 7 15 mph 1025.6mb 55f
7:00 8 13 mph 1025.6mb 55f
6:54 7 14 mph 1025.6mb 56f
6:48 6 11 mph 1025.5mb 56f
6:36 7 10 mph 1025.4mb 57f
6:30 6 13 mph 1025.5mb 57f
6:24 6 9 mph 1025.4mb 57f
6:18 8 14 mph 1025.3mb -
6:12 7 13 mph 1025.4mb 58f
6:06 7 11 mph 1025.3mb 58f
6:00 7 14 mph 1025.3mb 59f
5:54 8 16 mph 1025.2mb 59f
5:48 9 16 mph 1025.2mb 59f
5:42 8 16 mph 1025.2mb 59f
5:36 7 15 mph 1025.1mb 60f
5:30 8 16 mph 1025mb 61f
5:24 7 13 mph 1025mb 61f
5:18 8 16 mph 1024.8mb 62f
5:12 8 14 mph 1024.8mb 62f
5:06 10 16 mph 1024.8mb 62f
5:00 9 15 mph 1024.7mb 62f
4:54 10 14 mph 1024.8mb 62f
4:48 8 14 mph 1024.7mb 63f
4:42 7 10 mph 1024.7mb 64f
4:36 7 11 mph 1024.6mb 63f
4:30 5 8 mph 1024.7mb 62f
4:24 2 5 mph 1024.6mb 64f
4:18 2 5 mph 1024.5mb 67f
4:12 5 8 mph 1024.6mb 66f
4:06 5 8 mph 1024.6mb 65f
4:00 3 9 mph 1024.6mb 65f
3:54 3 10 mph 1024.5mb 67f
3:48 5 6 mph 1024.5mb 66f
3:42 5 7 mph 1024.6mb 66f
3:36 5 6 mph 1024.7mb 65f
3:30 7 9 mph 1024.7mb 65f
3:24 3 6 mph 1024.6mb 65f
3:18 6 8 mph 1024.7mb 65f
3:12 5 8 mph 1024.8mb 65f
3:06 3 6 mph 1024.7mb 66f
3:00 3 6 mph 1024.8mb 66f
2:54 3 6 mph 1024.9mb 65f
2:48 5 7 mph 1024.8mb 65f
2:42 6 9 mph 1024.9mb 65f
2:36 5 7 mph 1024.9mb 65f
2:30 5 8 mph 1024.8mb 65f
2:24 3 6 mph 1024.8mb 64f
2:18 5 7 mph 1024.8mb 65f
2:12 6 7 mph 1024.8mb 64f
2:06 1 2 mph 1024.9mb 65f
2:00 2 5 mph 1024.9mb 65f
1:54 5 8 mph 1025mb 64f
1:48 5 8 mph 1024.9mb 64f
1:42 6 9 mph 1024.8mb 64f
1:36 2 5 mph 1024.9mb 65f
1:30 3 6 mph 1024.9mb 65f
1:24 2 6 mph 1024.9mb 65f
1:18 6 9 mph 1024.9mb 63f
1:12 6 9 mph 1025mb 63f
1:06 7 10 mph 1025mb 64f
1:00 7 10 mph 1024.9mb 64f
12:54 7 10 mph 1024.8mb 64f
12:48 3 7 mph 1024.8mb 64f
12:42 7 11 mph 1024.8mb 64f
12:36 3 7 mph 1024.9mb 65f
12:30 5 7 mph 1025mb 64f
12:24 8 13 mph 1024.9mb 64f
12:18 8 13 mph 1025mb 63f
12:12 7 11 mph 1024.9mb 64f
12:06 8 13 mph 1024.8mb 63f
12:00 8 13 mph 1024.9mb 62f
11:54 7 10 mph 1024.9mb 61f
11:48 10 13 mph 1025mb 62f
11:42 9 13 mph 1025mb 62f
11:36 9 13 mph 1024.9mb 62f
11:30 7 11 mph 1024.9mb 62f
11:24 8 11 mph 1025mb 63f
11:18 10 16 mph 1024.9mb 62f
11:12 10 15 mph 1025mb 61f
11:06 10 14 mph 1025mb 62f
11:00 10 14 mph 1025.2mb 62f
10:54 10 13 mph 1025mb 61f
10:48 6 10 mph 1025.1mb 61f
10:42 8 11 mph 1025.1mb 60f
10:36 8 11 mph 1025.1mb 61f
10:30 11 16 mph 1025.1mb 60f
10:24 11 15 mph 1025.2mb 59f
10:18 11 16 mph 1025.1mb 59f
10:12 13 17 mph 1025.1mb 59f
10:06 11 15 mph 1025mb 59f
10:00 13 15 mph 1025.1mb 58f
9:54 11 16 mph 1025mb 59f
9:48 13 16 mph 1025mb 59f
9:42 14 20 mph 1025.1mb 58f
9:36 15 20 mph 1025.1mb 58f
9:30 10 15 mph 1024.9mb 58f
9:24 13 18 mph 1025mb 58f
9:18 9 13 mph 1025.1mb 58f
9:12 10 14 mph 1025.1mb 58f
9:06 9 14 mph 1025mb 58f
9:00 10 14 mph 1025.1mb 57f
8:54 11 15 mph 1025.1mb 57f
8:48 15 23 mph 1024.9mb 57f
8:42 10 14 mph 1024.6mb 57f
8:36 11 17 mph 1024.5mb 57f
8:30 11 20 mph 1024.4mb 56f
8:24 14 18 mph 1024.3mb 57f
8:18 13 16 mph 1024.3mb 56f
8:12 11 15 mph 1024.3mb 57f
8:06 11 17 mph 1024.1mb 56f
8:00 13 16 mph 1024.1mb 57f
7:54 13 16 mph 1024mb 56f
7:48 13 17 mph - -
7:42 14 20 mph 1023.7mb 57f
7:36 15 21 mph 1023.8mb 57f
7:30 13 17 mph 1023.7mb 56f
7:24 13 20 mph 1023.8mb 56f
7:18 16 22 mph 1023.5mb 57f
7:12 15 22 mph 1023.2mb 57f
7:06 15 21 mph 1023.2mb 56f
7:00 15 20 mph 1023.2mb 57f
6:54 16 22 mph 1023mb 57f
6:48 16 21 mph - -
6:42 17 24 mph 1022.8mb 57f
6:36 15 21 mph 1022.8mb 56f
6:30 16 21 mph 1022.8mb 57f
6:24 17 23 mph 1022.7mb 57f
6:18 16 21 mph 1022.6mb 56f
6:12 17 24 mph 1022.6mb 57f
6:06 15 24 mph 1022.4mb 57f
6:00 16 22 mph 1022.1mb 57f
5:54 15 21 mph 1021.9mb 57f
5:48 16 22 mph 1021.7mb 57f
5:42 15 20 mph 1021.6mb 57f
5:36 20 25 mph 1021.5mb 57f
5:30 18 24 mph 1021.3mb 57f
5:24 16 22 mph 1021.3mb 57f
5:18 15 18 mph 1021.2mb 57f
5:12 16 21 mph 1021.2mb 57f
5:06 16 22 mph 1021.2mb 57f
5:00 15 20 mph 1021.1mb 57f
4:54 14 21 mph 1021mb 57f
4:48 14 20 mph 1021mb 57f
4:42 14 18 mph 1020.9mb 57f
4:36 14 20 mph 1020.9mb 57f
4:30 15 20 mph 1020.6mb 57f
4:24 16 21 mph 1020.6mb 57f
4:18 15 18 mph 1020.5mb 58f
4:12 14 20 mph 1020mb 58f
4:06 14 20 mph 1020mb 58f
4:00 15 21 mph 1020mb 58f
3:54 14 18 mph 1019.8mb 58f
3:48 14 18 mph 1019.7mb 58f
3:42 13 17 mph 1019.7mb 58f
3:36 13 17 mph 1019.7mb 58f
3:30 13 18 mph 1019.8mb 58f
3:24 13 17 mph 1019.7mb 58f
3:18 10 14 mph 1019.6mb 59f
3:12 10 16 mph 1019.7mb 58f
3:06 13 18 mph 1019.5mb 59f
3:00 11 18 mph 1019.4mb 59f
2:54 13 18 mph 1019.5mb 59f
2:48 15 23 mph 1019.3mb -
2:42 16 22 mph 1019.2mb -
2:36 14 20 mph 1019.2mb -
2:30 11 20 mph 1019.2mb 60f
2:24 15 21 mph 1019.1mb 60f
2:18 14 21 mph 1019.2mb 60f
2:12 15 23 mph 1019.1mb 60f